sensor_id;sensor_type;location;lat;lon;timestamp;P1;durP1;ratioP1;P2;durP2;ratioP2
25810;SDS011;13645;52.460;13.910;2022-08-19T00:01:53;9.88;;;6.97;;
25810;SDS011;13645;52.460;13.910;2022-08-19T00:04:22;11.50;;;7.10;;
25810;SDS011;13645;52.460;13.910;2022-08-19T00:06:51;10.65;;;7.07;;
25810;SDS011;13645;52.460;13.910;2022-08-19T00:09:19;8.18;;;6.93;;
25810;SDS011;13645;52.460;13.910;2022-08-19T00:11:50;11.57;;;7.70;;
25810;SDS011;13645;52.460;13.910;2022-08-19T00:14:18;8.77;;;7.07;;
25810;SDS011;13645;52.460;13.910;2022-08-19T00:16:47;8.98;;;7.30;;
25810;SDS011;13645;52.460;13.910;2022-08-19T00:19:15;11.45;;;7.57;;
25810;SDS011;13645;52.460;13.910;2022-08-19T00:21:42;9.07;;;8.18;;
25810;SDS011;13645;52.460;13.910;2022-08-19T00:24:11;10.18;;;7.90;;
25810;SDS011;13645;52.460;13.910;2022-08-19T00:26:39;9.15;;;7.75;;
25810;SDS011;13645;52.460;13.910;2022-08-19T00:29:09;14.55;;;8.60;;
25810;SDS011;13645;52.460;13.910;2022-08-19T00:31:38;10.90;;;8.27;;
25810;SDS011;13645;52.460;13.910;2022-08-19T00:34:05;16.90;;;8.32;;
25810;SDS011;13645;52.460;13.910;2022-08-19T00:36:32;15.57;;;8.30;;
25810;SDS011;13645;52.460;13.910;2022-08-19T00:38:59;16.13;;;9.13;;
25810;SDS011;13645;52.460;13.910;2022-08-19T00:41:27;14.52;;;8.77;;
25810;SDS011;13645;52.460;13.910;2022-08-19T00:44:02;15.05;;;8.57;;
25810;SDS011;13645;52.460;13.910;2022-08-19T00:46:29;14.75;;;9.40;;
25810;SDS011;13645;52.460;13.910;2022-08-19T00:48:59;15.10;;;9.07;;
25810;SDS011;13645;52.460;13.910;2022-08-19T00:51:28;15.88;;;7.85;;
25810;SDS011;13645;52.460;13.910;2022-08-19T00:53:59;10.27;;;8.52;;
25810;SDS011;13645;52.460;13.910;2022-08-19T00:56:27;15.23;;;9.10;;
25810;SDS011;13645;52.460;13.910;2022-08-19T00:58:55;14.27;;;9.48;;
25810;SDS011;13645;52.460;13.910;2022-08-19T01:01:23;10.82;;;7.63;;
25810;SDS011;13645;52.460;13.910;2022-08-19T01:03:50;10.18;;;7.18;;
25810;SDS011;13645;52.460;13.910;2022-08-19T01:06:26;11.68;;;8.68;;
25810;SDS011;13645;52.460;13.910;2022-08-19T01:08:54;12.02;;;9.10;;
25810;SDS011;13645;52.460;13.910;2022-08-19T01:11:21;13.88;;;9.63;;
25810;SDS011;13645;52.460;13.910;2022-08-19T01:13:59;12.38;;;9.25;;
25810;SDS011;13645;52.460;13.910;2022-08-19T01:16:27;11.27;;;7.70;;
25810;SDS011;13645;52.460;13.910;2022-08-19T01:18:58;11.95;;;7.65;;
25810;SDS011;13645;52.460;13.910;2022-08-19T01:21:31;12.48;;;6.85;;
25810;SDS011;13645;52.460;13.910;2022-08-19T01:24:14;10.63;;;8.40;;
25810;SDS011;13645;52.460;13.910;2022-08-19T01:26:49;10.85;;;8.35;;
25810;SDS011;13645;52.460;13.910;2022-08-19T01:29:17;11.20;;;8.63;;
25810;SDS011;13645;52.460;13.910;2022-08-19T01:31:49;9.52;;;8.55;;
25810;SDS011;13645;52.460;13.910;2022-08-19T01:34:18;11.90;;;8.52;;
25810;SDS011;13645;52.460;13.910;2022-08-19T01:36:46;12.70;;;8.52;;
25810;SDS011;13645;52.460;13.910;2022-08-19T01:39:22;12.05;;;9.00;;
25810;SDS011;13645;52.460;13.910;2022-08-19T01:41:50;12.88;;;8.18;;
25810;SDS011;13645;52.460;13.910;2022-08-19T01:44:21;11.50;;;8.27;;
25810;SDS011;13645;52.460;13.910;2022-08-19T01:46:50;14.23;;;8.35;;
25810;SDS011;13645;52.460;13.910;2022-08-19T01:49:18;14.32;;;8.98;;
25810;SDS011;13645;52.460;13.910;2022-08-19T01:51:47;9.65;;;7.90;;
25810;SDS011;13645;52.460;13.910;2022-08-19T01:54:16;10.88;;;6.90;;
25810;SDS011;13645;52.460;13.910;2022-08-19T01:56:53;11.18;;;7.72;;
25810;SDS011;13645;52.460;13.910;2022-08-19T01:59:26;13.45;;;8.60;;
25810;SDS011;13645;52.460;13.910;2022-08-19T02:01:53;11.13;;;8.32;;
25810;SDS011;13645;52.460;13.910;2022-08-19T02:04:21;10.02;;;8.40;;
25810;SDS011;13645;52.460;13.910;2022-08-19T02:06:49;12.25;;;9.57;;
25810;SDS011;13645;52.460;13.910;2022-08-19T02:09:16;14.82;;;9.85;;
25810;SDS011;13645;52.460;13.910;2022-08-19T02:11:43;11.57;;;10.05;;
25810;SDS011;13645;52.460;13.910;2022-08-19T02:14:10;12.38;;;10.23;;
25810;SDS011;13645;52.460;13.910;2022-08-19T02:16:37;15.18;;;10.43;;
25810;SDS011;13645;52.460;13.910;2022-08-19T02:19:04;12.80;;;11.02;;
25810;SDS011;13645;52.460;13.910;2022-08-19T02:21:31;12.85;;;10.57;;
25810;SDS011;13645;52.460;13.910;2022-08-19T02:23:58;12.68;;;11.15;;
25810;SDS011;13645;52.460;13.910;2022-08-19T02:26:25;12.82;;;10.63;;
25810;SDS011;13645;52.460;13.910;2022-08-19T02:28:53;13.48;;;11.40;;
25810;SDS011;13645;52.460;13.910;2022-08-19T02:31:21;15.57;;;11.30;;
25810;SDS011;13645;52.460;13.910;2022-08-19T02:33:51;20.10;;;11.73;;
25810;SDS011;13645;52.460;13.910;2022-08-19T02:36:21;17.55;;;11.93;;
25810;SDS011;13645;52.460;13.910;2022-08-19T02:38:50;15.90;;;11.80;;
25810;SDS011;13645;52.460;13.910;2022-08-19T02:41:30;15.43;;;12.50;;
25810;SDS011;13645;52.460;13.910;2022-08-19T02:43:59;15.85;;;12.73;;
25810;SDS011;13645;52.460;13.910;2022-08-19T02:46:47;14.68;;;12.02;;
25810;SDS011;13645;52.460;13.910;2022-08-19T02:49:17;15.93;;;12.75;;
25810;SDS011;13645;52.460;13.910;2022-08-19T02:51:46;14.25;;;12.02;;
25810;SDS011;13645;52.460;13.910;2022-08-19T02:54:14;16.38;;;13.73;;
25810;SDS011;13645;52.460;13.910;2022-08-19T02:56:41;15.07;;;12.70;;
25810;SDS011;13645;52.460;13.910;2022-08-19T02:59:09;16.58;;;13.55;;
25810;SDS011;13645;52.460;13.910;2022-08-19T03:01:37;17.42;;;14.50;;
25810;SDS011;13645;52.460;13.910;2022-08-19T03:04:07;15.50;;;13.80;;
25810;SDS011;13645;52.460;13.910;2022-08-19T03:06:36;17.48;;;13.77;;
25810;SDS011;13645;52.460;13.910;2022-08-19T03:09:05;16.38;;;13.27;;
25810;SDS011;13645;52.460;13.910;2022-08-19T03:11:32;19.38;;;14.35;;
25810;SDS011;13645;52.460;13.910;2022-08-19T03:13:59;15.60;;;13.50;;
25810;SDS011;13645;52.460;13.910;2022-08-19T03:16:28;16.70;;;13.65;;
25810;SDS011;13645;52.460;13.910;2022-08-19T03:18:59;21.63;;;14.38;;
25810;SDS011;13645;52.460;13.910;2022-08-19T03:21:29;18.48;;;14.35;;
25810;SDS011;13645;52.460;13.910;2022-08-19T03:23:58;16.33;;;14.63;;
25810;SDS011;13645;52.460;13.910;2022-08-19T03:26:27;15.73;;;14.15;;
25810;SDS011;13645;52.460;13.910;2022-08-19T03:28:54;18.40;;;14.85;;
25810;SDS011;13645;52.460;13.910;2022-08-19T03:31:24;16.85;;;14.57;;
25810;SDS011;13645;52.460;13.910;2022-08-19T03:34:33;18.55;;;15.60;;
25810;SDS011;13645;52.460;13.910;2022-08-19T03:37:02;16.90;;;15.10;;
25810;SDS011;13645;52.460;13.910;2022-08-19T03:39:33;20.00;;;15.23;;
25810;SDS011;13645;52.460;13.910;2022-08-19T03:42:03;19.52;;;13.75;;
25810;SDS011;13645;52.460;13.910;2022-08-19T03:44:51;19.90;;;14.52;;
25810;SDS011;13645;52.460;13.910;2022-08-19T03:47:18;18.85;;;14.02;;
25810;SDS011;13645;52.460;13.910;2022-08-19T03:49:45;21.67;;;14.10;;
25810;SDS011;13645;52.460;13.910;2022-08-19T03:52:12;17.17;;;13.30;;
25810;SDS011;13645;52.460;13.910;2022-08-19T03:54:39;15.52;;;13.23;;
25810;SDS011;13645;52.460;13.910;2022-08-19T03:57:06;15.80;;;14.10;;
25810;SDS011;13645;52.460;13.910;2022-08-19T03:59:34;17.05;;;13.40;;
25810;SDS011;13645;52.460;13.910;2022-08-19T04:02:06;18.27;;;13.73;;
25810;SDS011;13645;52.460;13.910;2022-08-19T04:04:39;13.88;;;12.45;;
25810;SDS011;13645;52.460;13.910;2022-08-19T04:07:10;16.65;;;13.02;;
25810;SDS011;13645;52.460;13.910;2022-08-19T04:09:41;13.55;;;12.10;;
25810;SDS011;13645;52.460;13.910;2022-08-19T04:12:08;14.73;;;12.70;;
25810;SDS011;13645;52.460;13.910;2022-08-19T04:14:35;16.00;;;13.07;;
25810;SDS011;13645;52.460;13.910;2022-08-19T04:17:02;14.00;;;12.55;;
25810;SDS011;13645;52.460;13.910;2022-08-19T04:19:33;14.38;;;12.98;;
25810;SDS011;13645;52.460;13.910;2022-08-19T04:22:01;14.80;;;13.23;;
25810;SDS011;13645;52.460;13.910;2022-08-19T04:24:28;14.85;;;12.85;;
25810;SDS011;13645;52.460;13.910;2022-08-19T04:26:55;17.38;;;13.43;;
25810;SDS011;13645;52.460;13.910;2022-08-19T04:29:23;16.85;;;12.77;;
25810;SDS011;13645;52.460;13.910;2022-08-19T04:31:52;14.00;;;12.50;;
25810;SDS011;13645;52.460;13.910;2022-08-19T04:34:20;14.85;;;13.30;;
25810;SDS011;13645;52.460;13.910;2022-08-19T04:36:50;18.83;;;12.60;;
25810;SDS011;13645;52.460;13.910;2022-08-19T04:39:19;15.32;;;13.68;;
25810;SDS011;13645;52.460;13.910;2022-08-19T04:41:48;15.10;;;12.93;;
25810;SDS011;13645;52.460;13.910;2022-08-19T04:44:35;18.25;;;13.38;;
25810;SDS011;13645;52.460;13.910;2022-08-19T04:47:11;14.13;;;12.73;;
25810;SDS011;13645;52.460;13.910;2022-08-19T04:49:38;15.30;;;12.65;;
25810;SDS011;13645;52.460;13.910;2022-08-19T04:52:04;17.02;;;12.90;;
25810;SDS011;13645;52.460;13.910;2022-08-19T04:54:31;13.70;;;12.20;;
25810;SDS011;13645;52.460;13.910;2022-08-19T04:57:05;14.93;;;12.32;;
25810;SDS011;13645;52.460;13.910;2022-08-19T04:59:34;14.95;;;12.80;;
25810;SDS011;13645;52.460;13.910;2022-08-19T05:02:01;14.20;;;12.63;;
25810;SDS011;13645;52.460;13.910;2022-08-19T05:04:29;13.98;;;12.68;;
25810;SDS011;13645;52.460;13.910;2022-08-19T05:06:59;17.35;;;13.25;;
25810;SDS011;13645;52.460;13.910;2022-08-19T05:09:28;15.15;;;12.88;;
25810;SDS011;13645;52.460;13.910;2022-08-19T05:12:16;14.25;;;12.85;;
25810;SDS011;13645;52.460;13.910;2022-08-19T05:14:43;14.68;;;13.15;;
25810;SDS011;13645;52.460;13.910;2022-08-19T05:17:12;13.88;;;12.48;;
25810;SDS011;13645;52.460;13.910;2022-08-19T05:19:59;14.95;;;13.15;;
25810;SDS011;13645;52.460;13.910;2022-08-19T05:22:46;14.80;;;13.20;;
25810;SDS011;13645;52.460;13.910;2022-08-19T05:25:15;14.70;;;13.20;;
25810;SDS011;13645;52.460;13.910;2022-08-19T05:30:31;17.63;;;14.73;;
25810;SDS011;13645;52.460;13.910;2022-08-19T05:33:12;15.13;;;13.57;;
25810;SDS011;13645;52.460;13.910;2022-08-19T05:35:39;15.65;;;14.05;;
25810;SDS011;13645;52.460;13.910;2022-08-19T05:38:07;18.98;;;14.13;;
25810;SDS011;13645;52.460;13.910;2022-08-19T05:40:35;16.48;;;13.55;;
25810;SDS011;13645;52.460;13.910;2022-08-19T05:43:05;16.67;;;12.90;;
25810;SDS011;13645;52.460;13.910;2022-08-19T05:45:37;16.30;;;13.52;;
25810;SDS011;13645;52.460;13.910;2022-08-19T05:48:06;15.93;;;14.00;;
25810;SDS011;13645;52.460;13.910;2022-08-19T05:50:33;18.52;;;14.10;;
25810;SDS011;13645;52.460;13.910;2022-08-19T05:53:01;16.33;;;14.10;;
25810;SDS011;13645;52.460;13.910;2022-08-19T05:55:28;14.75;;;13.18;;
25810;SDS011;13645;52.460;13.910;2022-08-19T05:57:55;20.25;;;14.95;;
25810;SDS011;13645;52.460;13.910;2022-08-19T06:00:22;21.85;;;13.88;;
25810;SDS011;13645;52.460;13.910;2022-08-19T06:02:50;18.23;;;13.30;;
25810;SDS011;13645;52.460;13.910;2022-08-19T06:05:17;15.45;;;13.85;;
25810;SDS011;13645;52.460;13.910;2022-08-19T06:07:46;15.77;;;13.75;;
25810;SDS011;13645;52.460;13.910;2022-08-19T06:10:13;16.10;;;14.07;;
25810;SDS011;13645;52.460;13.910;2022-08-19T06:12:42;15.98;;;14.32;;
25810;SDS011;13645;52.460;13.910;2022-08-19T06:15:10;17.55;;;14.20;;
25810;SDS011;13645;52.460;13.910;2022-08-19T06:17:41;20.63;;;14.07;;
25810;SDS011;13645;52.460;13.910;2022-08-19T06:20:11;20.67;;;15.05;;
25810;SDS011;13645;52.460;13.910;2022-08-19T06:22:40;16.65;;;14.63;;
25810;SDS011;13645;52.460;13.910;2022-08-19T06:25:09;21.63;;;15.63;;
25810;SDS011;13645;52.460;13.910;2022-08-19T06:27:36;18.20;;;15.55;;
25810;SDS011;13645;52.460;13.910;2022-08-19T06:30:18;21.85;;;16.50;;
25810;SDS011;13645;52.460;13.910;2022-08-19T06:32:45;22.30;;;16.25;;
25810;SDS011;13645;52.460;13.910;2022-08-19T06:35:12;18.50;;;14.90;;
25810;SDS011;13645;52.460;13.910;2022-08-19T06:37:40;20.05;;;16.33;;
25810;SDS011;13645;52.460;13.910;2022-08-19T06:40:09;17.58;;;15.07;;
25810;SDS011;13645;52.460;13.910;2022-08-19T06:42:37;21.73;;;16.10;;
25810;SDS011;13645;52.460;13.910;2022-08-19T06:45:20;19.90;;;15.90;;
25810;SDS011;13645;52.460;13.910;2022-08-19T06:47:50;18.73;;;15.65;;
25810;SDS011;13645;52.460;13.910;2022-08-19T06:50:20;23.05;;;15.88;;
25810;SDS011;13645;52.460;13.910;2022-08-19T06:52:50;19.85;;;16.27;;
25810;SDS011;13645;52.460;13.910;2022-08-19T06:55:18;20.85;;;17.23;;
25810;SDS011;13645;52.460;13.910;2022-08-19T06:57:45;21.73;;;17.13;;
25810;SDS011;13645;52.460;13.910;2022-08-19T07:00:14;21.38;;;16.42;;
25810;SDS011;13645;52.460;13.910;2022-08-19T07:02:41;17.88;;;15.95;;
25810;SDS011;13645;52.460;13.910;2022-08-19T07:05:20;19.52;;;16.50;;
25810;SDS011;13645;52.460;13.910;2022-08-19T07:07:47;19.50;;;17.50;;
25810;SDS011;13645;52.460;13.910;2022-08-19T07:10:16;20.73;;;17.58;;
25810;SDS011;13645;52.460;13.910;2022-08-19T07:12:43;20.15;;;16.30;;
25810;SDS011;13645;52.460;13.910;2022-08-19T07:15:10;19.15;;;17.00;;
25810;SDS011;13645;52.460;13.910;2022-08-19T07:17:38;23.23;;;17.83;;
25810;SDS011;13645;52.460;13.910;2022-08-19T07:20:07;21.85;;;17.33;;
25810;SDS011;13645;52.460;13.910;2022-08-19T07:22:38;22.85;;;17.52;;
25810;SDS011;13645;52.460;13.910;2022-08-19T07:25:06;21.98;;;18.50;;
25810;SDS011;13645;52.460;13.910;2022-08-19T07:27:34;19.83;;;17.73;;
25810;SDS011;13645;52.460;13.910;2022-08-19T07:30:01;19.63;;;17.63;;
25810;SDS011;13645;52.460;13.910;2022-08-19T07:32:29;23.92;;;19.05;;
25810;SDS011;13645;52.460;13.910;2022-08-19T07:34:57;25.63;;;18.80;;
25810;SDS011;13645;52.460;13.910;2022-08-19T07:37:26;22.33;;;18.65;;
25810;SDS011;13645;52.460;13.910;2022-08-19T07:39:59;21.75;;;18.98;;
25810;SDS011;13645;52.460;13.910;2022-08-19T07:42:27;21.55;;;18.58;;
25810;SDS011;13645;52.460;13.910;2022-08-19T07:44:56;21.45;;;17.80;;
25810;SDS011;13645;52.460;13.910;2022-08-19T07:47:23;19.73;;;16.67;;
25810;SDS011;13645;52.460;13.910;2022-08-19T07:50:10;18.90;;;16.88;;
25810;SDS011;13645;52.460;13.910;2022-08-19T07:52:38;22.10;;;17.27;;
25810;SDS011;13645;52.460;13.910;2022-08-19T07:55:06;20.52;;;17.85;;
25810;SDS011;13645;52.460;13.910;2022-08-19T07:57:54;25.10;;;19.58;;
25810;SDS011;13645;52.460;13.910;2022-08-19T08:00:21;20.33;;;17.33;;
25810;SDS011;13645;52.460;13.910;2022-08-19T08:02:50;22.83;;;17.63;;
25810;SDS011;13645;52.460;13.910;2022-08-19T08:05:20;19.52;;;17.42;;
25810;SDS011;13645;52.460;13.910;2022-08-19T08:08:09;26.80;;;18.45;;
25810;SDS011;13645;52.460;13.910;2022-08-19T08:10:55;21.90;;;17.13;;
25810;SDS011;13645;52.460;13.910;2022-08-19T08:13:23;22.02;;;17.73;;
25810;SDS011;13645;52.460;13.910;2022-08-19T08:15:51;20.85;;;16.83;;
25810;SDS011;13645;52.460;13.910;2022-08-19T08:18:22;21.58;;;17.58;;
25810;SDS011;13645;52.460;13.910;2022-08-19T08:20:55;20.88;;;17.27;;
25810;SDS011;13645;52.460;13.910;2022-08-19T08:23:23;18.80;;;17.00;;
25810;SDS011;13645;52.460;13.910;2022-08-19T08:25:55;19.88;;;15.48;;
25810;SDS011;13645;52.460;13.910;2022-08-19T08:28:24;20.42;;;16.55;;
25810;SDS011;13645;52.460;13.910;2022-08-19T08:30:55;21.98;;;17.13;;
25810;SDS011;13645;52.460;13.910;2022-08-19T08:33:23;19.02;;;17.13;;
25810;SDS011;13645;52.460;13.910;2022-08-19T08:36:00;20.40;;;18.23;;
25810;SDS011;13645;52.460;13.910;2022-08-19T08:38:29;22.45;;;18.23;;
25810;SDS011;13645;52.460;13.910;2022-08-19T08:41:06;21.25;;;17.02;;
25810;SDS011;13645;52.460;13.910;2022-08-19T08:43:46;23.17;;;17.10;;
25810;SDS011;13645;52.460;13.910;2022-08-19T08:51:42;17.45;;;15.68;;
25810;SDS011;13645;52.460;13.910;2022-08-19T08:54:24;24.17;;;16.17;;
25810;SDS011;13645;52.460;13.910;2022-08-19T08:57:07;16.15;;;14.35;;
25810;SDS011;13645;52.460;13.910;2022-08-19T09:00:34;20.50;;;16.83;;
25810;SDS011;13645;52.460;13.910;2022-08-19T09:03:19;21.77;;;15.98;;
25810;SDS011;13645;52.460;13.910;2022-08-19T09:06:03;17.20;;;14.70;;
25810;SDS011;13645;52.460;13.910;2022-08-19T09:11:19;20.52;;;16.33;;
25810;SDS011;13645;52.460;13.910;2022-08-19T09:17:02;23.00;;;15.60;;
25810;SDS011;13645;52.460;13.910;2022-08-19T09:19:30;19.42;;;15.52;;
25810;SDS011;13645;52.460;13.910;2022-08-19T09:21:57;19.30;;;15.48;;
25810;SDS011;13645;52.460;13.910;2022-08-19T09:24:26;17.95;;;15.57;;
25810;SDS011;13645;52.460;13.910;2022-08-19T09:26:56;19.80;;;14.88;;
25810;SDS011;13645;52.460;13.910;2022-08-19T09:29:23;22.65;;;15.38;;
25810;SDS011;13645;52.460;13.910;2022-08-19T09:31:50;18.83;;;14.80;;
25810;SDS011;13645;52.460;13.910;2022-08-19T09:34:17;25.02;;;16.73;;
25810;SDS011;13645;52.460;13.910;2022-08-19T09:36:47;21.58;;;16.98;;
25810;SDS011;13645;52.460;13.910;2022-08-19T09:39:19;23.83;;;17.77;;
25810;SDS011;13645;52.460;13.910;2022-08-19T09:41:47;21.50;;;17.58;;
25810;SDS011;13645;52.460;13.910;2022-08-19T09:44:18;18.88;;;15.98;;
25810;SDS011;13645;52.460;13.910;2022-08-19T09:46:47;17.85;;;15.07;;
25810;SDS011;13645;52.460;13.910;2022-08-19T09:49:18;22.02;;;16.02;;
25810;SDS011;13645;52.460;13.910;2022-08-19T09:51:46;22.15;;;15.05;;
25810;SDS011;13645;52.460;13.910;2022-08-19T09:54:16;22.88;;;15.40;;
25810;SDS011;13645;52.460;13.910;2022-08-19T09:56:50;21.50;;;13.80;;
25810;SDS011;13645;52.460;13.910;2022-08-19T09:59:18;19.48;;;14.20;;
25810;SDS011;13645;52.460;13.910;2022-08-19T10:01:44;15.70;;;13.88;;
25810;SDS011;13645;52.460;13.910;2022-08-19T10:04:11;19.27;;;14.80;;
25810;SDS011;13645;52.460;13.910;2022-08-19T10:06:47;18.70;;;14.90;;
25810;SDS011;13645;52.460;13.910;2022-08-19T10:09:18;16.17;;;14.48;;
25810;SDS011;13645;52.460;13.910;2022-08-19T10:11:58;19.65;;;14.98;;
25810;SDS011;13645;52.460;13.910;2022-08-19T10:14:27;16.27;;;14.57;;
25810;SDS011;13645;52.460;13.910;2022-08-19T10:16:54;16.63;;;12.93;;
25810;SDS011;13645;52.460;13.910;2022-08-19T10:19:24;15.65;;;13.35;;
25810;SDS011;13645;52.460;13.910;2022-08-19T10:21:52;19.50;;;14.65;;
25810;SDS011;13645;52.460;13.910;2022-08-19T10:24:25;15.50;;;13.05;;
25810;SDS011;13645;52.460;13.910;2022-08-19T10:26:54;16.98;;;13.25;;
25810;SDS011;13645;52.460;13.910;2022-08-19T10:29:25;17.70;;;14.48;;
25810;SDS011;13645;52.460;13.910;2022-08-19T10:31:58;18.73;;;15.40;;
25810;SDS011;13645;52.460;13.910;2022-08-19T10:34:29;20.90;;;14.90;;
25810;SDS011;13645;52.460;13.910;2022-08-19T10:36:57;19.10;;;14.88;;
25810;SDS011;13645;52.460;13.910;2022-08-19T10:39:27;17.20;;;14.93;;
25810;SDS011;13645;52.460;13.910;2022-08-19T10:41:56;19.65;;;14.70;;
25810;SDS011;13645;52.460;13.910;2022-08-19T10:44:23;17.70;;;14.30;;
25810;SDS011;13645;52.460;13.910;2022-08-19T10:46:57;19.30;;;13.43;;
25810;SDS011;13645;52.460;13.910;2022-08-19T10:49:25;16.65;;;14.45;;
25810;SDS011;13645;52.460;13.910;2022-08-19T10:51:53;17.85;;;14.35;;
25810;SDS011;13645;52.460;13.910;2022-08-19T10:54:47;16.17;;;13.98;;
25810;SDS011;13645;52.460;13.910;2022-08-19T10:57:33;20.60;;;14.45;;
25810;SDS011;13645;52.460;13.910;2022-08-19T11:00:21;18.85;;;15.30;;
25810;SDS011;13645;52.460;13.910;2022-08-19T11:02:49;16.85;;;15.15;;
25810;SDS011;13645;52.460;13.910;2022-08-19T11:05:16;25.30;;;15.13;;
25810;SDS011;13645;52.460;13.910;2022-08-19T11:07:44;16.23;;;14.45;;
25810;SDS011;13645;52.460;13.910;2022-08-19T11:10:12;19.15;;;15.55;;
25810;SDS011;13645;52.460;13.910;2022-08-19T11:12:46;20.50;;;15.60;;
25810;SDS011;13645;52.460;13.910;2022-08-19T11:15:13;21.27;;;15.32;;
25810;SDS011;13645;52.460;13.910;2022-08-19T11:17:40;19.00;;;15.23;;
25810;SDS011;13645;52.460;13.910;2022-08-19T11:20:07;19.45;;;14.52;;
25810;SDS011;13645;52.460;13.910;2022-08-19T11:22:35;17.35;;;14.80;;
25810;SDS011;13645;52.460;13.910;2022-08-19T11:25:07;21.08;;;15.45;;
25810;SDS011;13645;52.460;13.910;2022-08-19T11:27:40;17.40;;;15.45;;
25810;SDS011;13645;52.460;13.910;2022-08-19T11:30:11;18.92;;;15.82;;
25810;SDS011;13645;52.460;13.910;2022-08-19T11:32:39;17.38;;;14.98;;
25810;SDS011;13645;52.460;13.910;2022-08-19T11:35:13;18.23;;;15.10;;
25810;SDS011;13645;52.460;13.910;2022-08-19T11:37:40;16.88;;;14.80;;
25810;SDS011;13645;52.460;13.910;2022-08-19T11:40:07;19.33;;;14.73;;
25810;SDS011;13645;52.460;13.910;2022-08-19T11:42:34;17.60;;;14.35;;
25810;SDS011;13645;52.460;13.910;2022-08-19T11:45:20;16.73;;;14.38;;
25810;SDS011;13645;52.460;13.910;2022-08-19T11:47:46;20.58;;;14.63;;
25810;SDS011;13645;52.460;13.910;2022-08-19T11:50:14;15.85;;;13.93;;
25810;SDS011;13645;52.460;13.910;2022-08-19T11:52:53;20.23;;;14.35;;
25810;SDS011;13645;52.460;13.910;2022-08-19T11:55:22;20.60;;;13.38;;
25810;SDS011;13645;52.460;13.910;2022-08-19T11:57:49;16.20;;;14.55;;
25810;SDS011;13645;52.460;13.910;2022-08-19T12:00:16;15.70;;;13.98;;
25810;SDS011;13645;52.460;13.910;2022-08-19T12:02:44;17.67;;;14.70;;
25810;SDS011;13645;52.460;13.910;2022-08-19T12:05:10;17.63;;;14.13;;
25810;SDS011;13645;52.460;13.910;2022-08-19T12:07:38;15.82;;;14.07;;
25810;SDS011;13645;52.460;13.910;2022-08-19T12:10:06;18.20;;;13.27;;
25810;SDS011;13645;52.460;13.910;2022-08-19T12:12:34;14.40;;;12.55;;
25810;SDS011;13645;52.460;13.910;2022-08-19T12:15:00;13.60;;;11.82;;
25810;SDS011;13645;52.460;13.910;2022-08-19T12:17:27;15.52;;;12.07;;
25810;SDS011;13645;52.460;13.910;2022-08-19T12:19:54;14.77;;;12.98;;
25810;SDS011;13645;52.460;13.910;2022-08-19T12:22:21;15.00;;;12.32;;
25810;SDS011;13645;52.460;13.910;2022-08-19T12:24:48;15.50;;;12.13;;
25810;SDS011;13645;52.460;13.910;2022-08-19T12:27:17;13.45;;;12.10;;
25810;SDS011;13645;52.460;13.910;2022-08-19T12:30:05;12.02;;;10.70;;
25810;SDS011;13645;52.460;13.910;2022-08-19T12:32:34;13.65;;;11.45;;
25810;SDS011;13645;52.460;13.910;2022-08-19T12:35:00;14.15;;;11.80;;
25810;SDS011;13645;52.460;13.910;2022-08-19T12:37:27;15.40;;;11.85;;
25810;SDS011;13645;52.460;13.910;2022-08-19T12:39:57;14.98;;;11.30;;
25810;SDS011;13645;52.460;13.910;2022-08-19T12:42:24;14.48;;;11.75;;
25810;SDS011;13645;52.460;13.910;2022-08-19T12:44:51;16.45;;;11.70;;
25810;SDS011;13645;52.460;13.910;2022-08-19T12:47:19;15.90;;;11.60;;
25810;SDS011;13645;52.460;13.910;2022-08-19T12:49:47;13.82;;;10.52;;
25810;SDS011;13645;52.460;13.910;2022-08-19T12:52:21;13.25;;;10.77;;
25810;SDS011;13645;52.460;13.910;2022-08-19T12:54:52;12.07;;;10.88;;
25810;SDS011;13645;52.460;13.910;2022-08-19T12:57:25;12.10;;;10.77;;
25810;SDS011;13645;52.460;13.910;2022-08-19T13:00:12;14.05;;;11.50;;
25810;SDS011;13645;52.460;13.910;2022-08-19T13:02:43;14.38;;;10.75;;
25810;SDS011;13645;52.460;13.910;2022-08-19T13:05:13;16.33;;;12.15;;
25810;SDS011;13645;52.460;13.910;2022-08-19T13:07:47;12.43;;;11.20;;
25810;SDS011;13645;52.460;13.910;2022-08-19T13:10:14;15.45;;;11.45;;
25810;SDS011;13645;52.460;13.910;2022-08-19T13:12:47;15.55;;;10.93;;
25810;SDS011;13645;52.460;13.910;2022-08-19T13:15:16;15.63;;;11.10;;
25810;SDS011;13645;52.460;13.910;2022-08-19T13:17:50;14.80;;;10.88;;
25810;SDS011;13645;52.460;13.910;2022-08-19T13:20:19;13.30;;;10.90;;
25810;SDS011;13645;52.460;13.910;2022-08-19T13:22:50;18.52;;;11.88;;
25810;SDS011;13645;52.460;13.910;2022-08-19T13:25:21;14.82;;;11.73;;
25810;SDS011;13645;52.460;13.910;2022-08-19T13:27:48;14.25;;;11.07;;
25810;SDS011;13645;52.460;13.910;2022-08-19T13:30:17;12.80;;;11.45;;
25810;SDS011;13645;52.460;13.910;2022-08-19T13:33:04;12.75;;;10.85;;
25810;SDS011;13645;52.460;13.910;2022-08-19T13:38:05;14.52;;;10.80;;
25810;SDS011;13645;52.460;13.910;2022-08-19T13:40:37;13.82;;;12.35;;
25810;SDS011;13645;52.460;13.910;2022-08-19T13:43:06;16.30;;;12.32;;
25810;SDS011;13645;52.460;13.910;2022-08-19T13:45:47;16.65;;;12.20;;
25810;SDS011;13645;52.460;13.910;2022-08-19T13:48:14;15.70;;;11.90;;
25810;SDS011;13645;52.460;13.910;2022-08-19T13:50:43;15.60;;;11.98;;
25810;SDS011;13645;52.460;13.910;2022-08-19T13:53:13;18.40;;;11.65;;
25810;SDS011;13645;52.460;13.910;2022-08-19T13:55:46;15.02;;;12.15;;
25810;SDS011;13645;52.460;13.910;2022-08-19T13:58:13;18.38;;;13.40;;
25810;SDS011;13645;52.460;13.910;2022-08-19T14:00:44;18.60;;;11.60;;
25810;SDS011;13645;52.460;13.910;2022-08-19T14:03:12;14.63;;;13.13;;
25810;SDS011;13645;52.460;13.910;2022-08-19T14:05:39;18.00;;;12.85;;
25810;SDS011;13645;52.460;13.910;2022-08-19T14:08:06;17.25;;;13.57;;
25810;SDS011;13645;52.460;13.910;2022-08-19T14:10:33;16.38;;;13.02;;
25810;SDS011;13645;52.460;13.910;2022-08-19T14:13:01;14.48;;;11.30;;
25810;SDS011;13645;52.460;13.910;2022-08-19T14:15:29;12.73;;;11.43;;
25810;SDS011;13645;52.460;13.910;2022-08-19T14:17:56;15.43;;;11.07;;
25810;SDS011;13645;52.460;13.910;2022-08-19T14:20:23;11.52;;;10.30;;
25810;SDS011;13645;52.460;13.910;2022-08-19T14:22:52;12.27;;;10.98;;
25810;SDS011;13645;52.460;13.910;2022-08-19T14:25:22;14.45;;;11.45;;
25810;SDS011;13645;52.460;13.910;2022-08-19T14:27:51;12.27;;;10.80;;
25810;SDS011;13645;52.460;13.910;2022-08-19T14:30:20;13.70;;;10.95;;
25810;SDS011;13645;52.460;13.910;2022-08-19T14:32:48;12.95;;;10.50;;
25810;SDS011;13645;52.460;13.910;2022-08-19T14:35:15;12.45;;;10.52;;
25810;SDS011;13645;52.460;13.910;2022-08-19T14:37:42;11.98;;;10.60;;
25810;SDS011;13645;52.460;13.910;2022-08-19T14:40:12;13.10;;;10.63;;
25810;SDS011;13645;52.460;13.910;2022-08-19T14:42:42;12.65;;;11.35;;
25810;SDS011;13645;52.460;13.910;2022-08-19T14:45:10;11.95;;;10.75;;
25810;SDS011;13645;52.460;13.910;2022-08-19T14:47:38;14.07;;;10.93;;